SBOSBO PRG / LKPR
Speedbird OnlineSpeedbird Online PRG / LKPR

Václav Havel Airport Prague
14:27 19.9°C

Location Prague, Czech Republic
Latitude: 50.1008
Longitude: 14.26
Local Time 14:27 on 12 Apr 2024
UTC +2 hours (Europe/Prague)
Currency £1 equals 0.00
METAR LKPR 121200Z 26008KT 230V290 CAVOK 19/04 Q1031 NOSIG
TAF TAF LKPR 121100Z 1212/1318 24010KT CAVOK TEMPO 1311/1315 9999 SCT040
Weather As Of 12 Apr 2024 14:27
Description Clear sky
Wind 19 km/h from West (250°)
Cloud Cover 0%
Precipitation Rain: none, Snow: none
Sunrise 06:15
Sunset 19:51
NOTAM 5 active NOTAM
Rotations During the last 90 days there were
372 flights from LHR
26 flights from LCY
1 flights from PRG
367 flights to LHR
26 flights to LCY
1 flights to PRG
1 flights to STN
1 flights to LPL
Lounges Mastercard Lounge Terminal 1 , Terminal 1
Mastercard Lounge, Terminal 1 Departure Hall (2nd Floor)
Erste Premier Lounge, Terminal 2
Menzies Aviation Lounge (Temporarily closed), Terminal 2
Web Airport Website | Wikipedia
Codes IATA: PRG
ICAO: LKPR
Altitude 380 Meter / 1247 Feet
Distance 1,004 KM / 624 Miles
from London.
Runways
RunwayLength (m)Surface
042120Asphalt
063715Concrete
123250Concrete
222120Asphalt
243715Concrete
303250Concrete
Radio
TypeDescriptionFrequency
APPPraha Approach120.53
APPPraha Approach127.58
ATISATIS122.16
CLDRuzyně Delivery120.06
GNDRuzyně Ground121.91
INFORuzyně Information118.31
RDRRuzyně Radar119.01
TWRRuzyně Tower134.56
Live ATC



Support Speedbird Online

© 2017-2024 Speedbird Online